createdAt,value
2023-04-01T00:02:13.118Z,9.05
2023-04-01T00:04:51.201Z,10.18
2023-04-01T00:11:48.001Z,10.15
2023-04-01T00:18:18.247Z,9.63
2023-04-01T00:21:09.972Z,7.88
2023-04-01T00:34:00.154Z,8.15
2023-04-01T00:37:18.584Z,9.98
2023-04-01T00:40:37.161Z,8.95
2023-04-01T00:54:37.833Z,11.38
2023-04-01T00:58:23.630Z,10.70
2023-04-01T01:01:01.030Z,8.57
2023-04-01T01:03:34.597Z,10.35
2023-04-01T01:07:46.407Z,10.40
2023-04-01T01:10:51.716Z,9.20
2023-04-01T01:14:28.791Z,9.23
2023-04-01T01:17:45.291Z,6.47
2023-04-01T01:21:14.458Z,7.05
2023-04-01T01:24:22.137Z,7.82
2023-04-01T01:27:37.169Z,6.50
2023-04-01T01:34:05.904Z,5.55
2023-04-01T01:48:41.954Z,5.60
2023-04-01T01:51:21.886Z,5.22
2023-04-01T01:58:14.344Z,4.22
2023-04-01T02:00:35.716Z,4.28
2023-04-01T02:03:27.316Z,5.07
2023-04-01T02:06:01.493Z,4.47
2023-04-01T02:10:00.624Z,4.30
2023-04-01T02:12:14.817Z,4.40
2023-04-01T02:15:21.434Z,3.90
2023-04-01T02:18:27.061Z,5.13
2023-04-01T02:21:47.565Z,4.53
2023-04-01T02:24:34.760Z,4.43
2023-04-01T02:27:07.258Z,4.45
2023-04-01T02:29:51.050Z,4.78
2023-04-01T02:38:40.598Z,4.22
2023-04-01T02:41:55.831Z,5.10
2023-04-01T02:47:37.507Z,5.00
2023-04-01T02:50:36.285Z,4.45
2023-04-01T02:53:15.181Z,4.65
2023-04-01T02:59:12.912Z,4.28
2023-04-01T03:01:51.697Z,5.18
2023-04-01T03:07:41.343Z,5.72
2023-04-01T03:10:17.079Z,6.32
2023-04-01T03:12:45.096Z,5.93
2023-04-01T03:16:01.103Z,6.75
2023-04-01T03:22:20.995Z,9.45
2023-04-01T03:25:10.656Z,9.20
2023-04-01T03:28:06.039Z,9.50
2023-04-01T03:31:32.335Z,10.18
2023-04-01T03:34:31.428Z,9.55
2023-04-01T03:37:13.356Z,10.52
2023-04-01T03:39:47.733Z,11.02
2023-04-01T03:42:23.663Z,10.35
2023-04-01T03:48:16.770Z,9.68
2023-04-01T03:51:34.011Z,11.02
2023-04-01T04:00:59.414Z,9.55
2023-04-01T04:06:17.897Z,8.75
2023-04-01T04:10:30.479Z,7.53
2023-04-01T04:22:51.249Z,5.80
2023-04-01T04:53:23.722Z,5.75
2023-04-01T04:57:34.088Z,6.05
2023-04-01T05:02:46.904Z,6.70
2023-04-01T05:08:07.594Z,6.97
2023-04-01T05:17:23.231Z,5.43
2023-04-01T05:24:11.901Z,5.38
2023-04-01T05:41:03.278Z,5.28
2023-04-01T05:54:34.804Z,7.18
2023-04-01T06:01:10.421Z,7.43
2023-04-01T06:04:05.774Z,7.65
2023-04-01T06:07:42.338Z,6.88
2023-04-01T06:10:49.028Z,6.32
2023-04-01T06:19:21.198Z,4.80
2023-04-01T06:38:47.047Z,3.30
2023-04-01T06:42:02.847Z,3.47
2023-04-01T06:45:26.128Z,3.58
2023-04-01T06:48:34.321Z,3.83
2023-04-01T06:51:03.761Z,3.58
2023-04-01T06:53:43.681Z,3.63
2023-04-01T06:59:29.993Z,4.72
2023-04-01T07:02:20.617Z,4.03
2023-04-01T07:05:00.998Z,4.60
2023-04-01T07:12:41.153Z,4.78
2023-04-01T07:15:33.436Z,4.32
2023-04-01T07:18:19.315Z,5.47
2023-04-01T07:23:34.215Z,5.53
2023-04-01T07:26:22.026Z,5.63
2023-04-01T07:28:49.641Z,5.95
2023-04-01T07:31:29.628Z,6.13
2023-04-01T07:34:15.301Z,6.47
2023-04-01T07:37:05.147Z,6.35
2023-04-01T07:40:03.963Z,7.15
2023-04-01T07:42:34.591Z,6.82
2023-04-01T07:48:19.058Z,6.40
2023-04-01T07:51:07.151Z,6.57
2023-04-01T07:53:38.172Z,7.38
2023-04-01T07:56:13.530Z,7.72
2023-04-01T07:58:59.166Z,7.70
2023-04-01T08:01:50.782Z,6.88
2023-04-01T08:04:20.632Z,7.75
2023-04-01T08:09:45.974Z,7.28
2023-04-01T08:12:18.491Z,7.50
2023-04-01T08:14:54.402Z,8.13
2023-04-01T08:17:24.302Z,7.35
2023-04-01T08:22:49.261Z,6.35
2023-04-01T08:25:35.136Z,6.13
2023-04-01T08:28:14.437Z,6.93
2023-04-01T08:30:52.465Z,6.05
2023-04-01T08:33:26.369Z,7.05
2023-04-01T08:35:58.612Z,6.13
2023-04-01T08:41:40.878Z,6.72
2023-04-01T08:44:37.892Z,6.78
2023-04-01T08:47:31.014Z,6.63
2023-04-01T08:50:35.498Z,6.10
2023-04-01T08:53:16.466Z,7.28
2023-04-01T08:56:14.615Z,7.35
2023-04-01T08:59:22.589Z,6.43
2023-04-01T09:03:26.639Z,6.32
2023-04-01T09:14:48.219Z,4.55
2023-04-01T09:21:34.168Z,4.30
2023-04-01T09:24:35.916Z,4.25
2023-04-01T09:27:37.143Z,4.47
2023-04-01T09:34:25.297Z,4.75
2023-04-01T09:39:27.201Z,5.80
2023-04-01T09:45:32.232Z,6.53
2023-04-01T09:48:58.200Z,7.25
2023-04-01T10:00:02.029Z,6.70
2023-04-01T10:02:34.479Z,6.70
2023-04-01T10:05:28.380Z,8.07
2023-04-01T10:08:21.980Z,7.43
2023-04-01T10:11:16.345Z,7.47
2023-04-01T10:14:03.762Z,6.60
2023-04-01T10:16:55.617Z,7.57
2023-04-01T10:19:40.813Z,7.32
2023-04-01T10:22:25.805Z,6.20
2023-04-01T10:24:57.893Z,6.75
2023-04-01T10:27:38.354Z,6.32
2023-04-01T10:30:16.351Z,6.40
2023-04-01T10:32:48.960Z,5.28
2023-04-01T10:35:24.911Z,5.65
2023-04-01T10:40:37.202Z,5.40
2023-04-01T10:43:32.848Z,5.22
2023-04-01T10:46:17.086Z,5.18
2023-04-01T10:49:11.112Z,4.20
2023-04-01T10:51:58.875Z,4.15
2023-04-01T10:55:13.684Z,3.80
2023-04-01T10:58:17.680Z,4.30
2023-04-01T11:01:15.052Z,4.93
2023-04-01T11:04:17.400Z,5.05
2023-04-01T11:06:55.993Z,4.63
2023-04-01T11:09:59.930Z,4.18
2023-04-01T11:12:45.542Z,4.97
2023-04-01T11:15:32.521Z,4.43
2023-04-01T11:18:10.323Z,4.38
2023-04-01T11:21:01.702Z,4.57
2023-04-01T11:24:03.894Z,4.00
2023-04-01T11:26:51.251Z,4.32
2023-04-01T11:29:58.712Z,4.30
2023-04-01T11:32:49.456Z,4.20
2023-04-01T11:35:38.236Z,4.20
2023-04-01T11:38:36.096Z,4.88
2023-04-01T11:41:27.724Z,5.50
2023-04-01T11:44:09.358Z,5.70
2023-04-01T11:46:47.930Z,6.18
2023-04-01T11:49:35.879Z,6.10
2023-04-01T11:52:23.249Z,5.65
2023-04-01T11:55:34.448Z,6.20
2023-04-01T12:02:06.897Z,7.10
2023-04-01T12:09:49.428Z,5.95
2023-04-01T12:13:02.270Z,6.05
2023-04-01T12:16:44.265Z,6.10
2023-04-01T12:20:04.973Z,5.95
2023-04-01T12:23:28.198Z,7.75
2023-04-01T12:26:38.824Z,8.07
2023-04-01T12:29:08.719Z,7.43
2023-04-01T12:31:40.503Z,8.13
2023-04-01T12:34:14.699Z,9.15
2023-04-01T12:36:51.347Z,7.68
2023-04-01T12:39:52.982Z,8.32
2023-04-01T12:42:32.521Z,8.57
2023-04-01T12:45:03.434Z,8.02
2023-04-01T12:47:53.284Z,7.60
2023-04-01T12:50:27.790Z,7.75
2023-04-01T12:53:23.345Z,8.15
2023-04-01T12:56:02.256Z,6.03
2023-04-01T12:58:34.279Z,6.30
2023-04-01T13:01:37.333Z,6.25
2023-04-01T13:04:28.821Z,6.32
2023-04-01T13:06:58.218Z,6.50
2023-04-01T13:09:34.664Z,6.40
2023-04-01T13:12:38.886Z,6.65
2023-04-01T13:15:13.926Z,6.25
2023-04-01T13:18:18.023Z,6.38
2023-04-01T13:21:09.714Z,5.68
2023-04-01T13:24:02.596Z,5.60
2023-04-01T13:27:03.026Z,5.40
2023-04-01T13:29:38.450Z,4.38
2023-04-01T13:35:31.005Z,4.65
2023-04-01T13:38:04.804Z,4.80
2023-04-01T13:40:49.358Z,4.90
2023-04-01T13:44:00.167Z,5.75
2023-04-01T13:46:41.860Z,6.32
2023-04-01T13:49:34.884Z,6.30
2023-04-01T13:52:30.389Z,5.78
2023-04-01T13:55:18.209Z,6.15
2023-04-01T13:58:11.022Z,6.82
2023-04-01T14:04:38.658Z,6.07
2023-04-01T14:08:13.902Z,6.22
2023-04-01T14:11:18.186Z,5.70
2023-04-01T14:13:50.031Z,7.05
2023-04-01T14:16:58.526Z,6.07
2023-04-01T14:22:55.860Z,6.03
2023-04-01T14:25:49.511Z,6.43
2023-04-01T14:28:59.197Z,6.80
2023-04-01T14:46:20.601Z,5.15
2023-04-01T14:53:09.147Z,5.78
2023-04-01T14:55:44.991Z,5.80
2023-04-01T14:58:20.070Z,5.47
2023-04-01T15:08:03.119Z,4.50
2023-04-01T15:11:04.141Z,4.55
2023-04-01T15:13:35.894Z,5.35
2023-04-01T15:16:32.307Z,5.00
2023-04-01T15:22:20.742Z,5.22
2023-04-01T15:28:20.127Z,4.78
2023-04-01T15:31:33.635Z,5.57
2023-04-01T15:34:50.616Z,5.88
2023-04-01T15:37:23.285Z,5.07
2023-04-01T15:40:15.632Z,5.10
2023-04-01T15:43:35.246Z,4.50
2023-04-01T15:46:38.038Z,4.50
2023-04-01T15:49:19.661Z,5.10
2023-04-01T15:52:17.564Z,4.38
2023-04-01T15:55:40.953Z,4.20
2023-04-01T15:58:59.580Z,4.07
2023-04-01T16:01:50.877Z,3.55
2023-04-01T16:04:26.584Z,3.67
2023-04-01T16:07:31.192Z,4.13
2023-04-01T16:10:51.235Z,3.50
2023-04-01T16:17:59.840Z,3.15
2023-04-01T16:23:57.081Z,3.65
2023-04-01T16:26:45.438Z,3.28
2023-04-01T16:29:24.809Z,4.22
2023-04-01T16:32:05.176Z,3.42
2023-04-01T16:34:37.398Z,4.38
2023-04-01T16:37:18.363Z,3.72
2023-04-01T16:39:55.432Z,4.30
2023-04-01T16:42:53.921Z,4.38
2023-04-01T16:45:27.838Z,4.00
2023-04-01T16:47:57.742Z,10.27
2023-04-01T16:53:01.938Z,5.60
2023-04-01T16:55:47.052Z,5.13
2023-04-01T16:58:21.953Z,4.32
2023-04-01T17:00:57.101Z,4.65
2023-04-01T17:03:38.799Z,4.30
2023-04-01T17:06:36.246Z,4.03
2023-04-01T17:09:32.144Z,4.28
2023-04-01T17:12:26.084Z,3.53
2023-04-01T17:14:53.334Z,3.70
2023-04-01T17:17:27.843Z,3.60
2023-04-01T17:20:17.317Z,3.53
2023-04-01T17:22:57.946Z,3.42
2023-04-01T17:25:51.145Z,3.60
2023-04-01T17:28:17.464Z,2.92
2023-04-01T17:30:56.317Z,3.50
2023-04-01T17:33:59.201Z,3.53
2023-04-01T17:36:54.641Z,3.63
2023-04-01T17:39:23.919Z,3.78
2023-04-01T17:42:22.089Z,3.38
2023-04-01T17:44:54.526Z,4.28
2023-04-01T17:47:51.427Z,3.33
2023-04-01T17:50:36.821Z,4.43
2023-04-01T17:53:27.598Z,4.65
2023-04-01T17:56:07.907Z,5.05
2023-04-01T17:59:02.091Z,3.97
2023-04-01T18:01:47.786Z,4.15
2023-04-01T18:04:26.408Z,4.20
2023-04-01T18:07:02.188Z,5.10
2023-04-01T18:09:40.878Z,4.13
2023-04-01T18:12:07.333Z,3.90
2023-04-01T18:14:56.013Z,4.22
2023-04-01T18:17:26.390Z,4.88
2023-04-01T18:20:17.752Z,4.35
2023-04-01T18:22:46.972Z,4.00
2023-04-01T18:25:19.747Z,4.13
2023-04-01T18:28:23.531Z,4.50
2023-04-01T18:30:56.872Z,3.92
2023-04-01T18:33:44.271Z,5.03
2023-04-01T18:36:19.184Z,5.15
2023-04-01T18:38:58.198Z,5.28
2023-04-01T18:41:42.242Z,5.43
2023-04-01T18:44:39.791Z,5.80
2023-04-01T18:47:31.036Z,4.90
2023-04-01T18:50:12.955Z,5.28
2023-04-01T18:52:42.742Z,5.22
2023-04-01T18:55:15.250Z,5.68
2023-04-01T18:57:51.685Z,5.70
2023-04-01T19:00:23.672Z,5.38
2023-04-01T19:03:12.058Z,5.90
2023-04-01T19:05:41.249Z,7.45
2023-04-01T19:08:31.360Z,6.00
2023-04-01T19:11:10.141Z,6.75
2023-04-01T19:13:43.770Z,6.80
2023-04-01T19:16:25.748Z,7.60
2023-04-01T19:18:55.360Z,7.20
2023-04-01T19:21:41.149Z,5.78
2023-04-01T19:24:25.287Z,7.40
2023-04-01T19:27:01.858Z,6.75
2023-04-01T19:29:40.621Z,6.75
2023-04-01T19:32:16.766Z,7.68
2023-04-01T19:37:42.198Z,6.93
2023-04-01T19:40:35.003Z,7.10
2023-04-01T19:43:11.579Z,7.65
2023-04-01T19:45:53.302Z,7.88
2023-04-01T19:48:57.336Z,8.00
2023-04-01T19:51:31.189Z,7.15
2023-04-01T19:54:20.395Z,7.28
2023-04-01T19:57:22.314Z,6.43
2023-04-01T19:59:53.116Z,6.70
2023-04-01T20:02:39.338Z,7.07
2023-04-01T20:05:20.241Z,6.47
2023-04-01T20:07:56.580Z,6.97
2023-04-01T20:10:36.475Z,6.72
2023-04-01T20:13:15.108Z,6.93
2023-04-01T20:15:47.736Z,6.72
2023-04-01T20:18:21.141Z,6.93
2023-04-01T20:20:56.752Z,7.15
2023-04-01T20:23:40.259Z,6.70
2023-04-01T20:26:13.936Z,7.18
2023-04-01T20:28:49.602Z,6.85
2023-04-01T20:31:37.777Z,8.60
2023-04-01T20:34:33.468Z,6.00
2023-04-01T20:37:21.958Z,5.57
2023-04-01T20:40:09.903Z,6.15
2023-04-01T20:42:55.124Z,6.78
2023-04-01T20:45:29.267Z,5.57
2023-04-01T20:48:20.047Z,6.43
2023-04-01T20:51:11.064Z,5.68
2023-04-01T20:53:44.035Z,5.40
2023-04-01T20:56:16.755Z,5.68
2023-04-01T20:58:49.382Z,5.53
2023-04-01T21:01:24.236Z,5.28
2023-04-01T21:04:01.458Z,5.35
2023-04-01T21:06:33.809Z,5.70
2023-04-01T21:09:21.865Z,5.95
2023-04-01T21:12:16.366Z,6.30
2023-04-01T21:15:00.119Z,6.15
2023-04-01T21:17:45.402Z,5.07
2023-04-01T21:20:36.816Z,6.80
2023-04-01T21:23:24.574Z,6.40
2023-04-01T21:26:35.591Z,6.00
2023-04-01T21:29:26.447Z,7.13
2023-04-01T21:31:58.822Z,6.88
2023-04-01T21:34:46.960Z,7.25
2023-04-01T21:37:44.416Z,5.88
2023-04-01T21:40:48.083Z,6.25
2023-04-01T21:43:39.480Z,6.40
2023-04-01T21:46:24.273Z,7.78
2023-04-01T21:49:09.590Z,7.18
2023-04-01T21:51:43.420Z,6.78
2023-04-01T21:54:41.098Z,6.40
2023-04-01T21:57:41.602Z,6.97
2023-04-01T22:00:16.944Z,7.13
2023-04-01T22:02:55.578Z,7.82
2023-04-01T22:05:32.377Z,7.85
2023-04-01T22:08:04.918Z,7.93
2023-04-01T22:10:42.866Z,7.82
2023-04-01T22:13:39.487Z,7.65
2023-04-01T22:16:10.402Z,8.25
2023-04-01T22:19:01.517Z,6.97
2023-04-01T22:21:42.083Z,8.10
2023-04-01T22:24:25.337Z,6.47
2023-04-01T22:27:21.123Z,7.43
2023-04-01T22:30:02.916Z,8.15
2023-04-01T22:32:30.473Z,7.82
2023-04-01T22:35:05.867Z,7.70
2023-04-01T22:37:56.370Z,8.48
2023-04-01T22:40:27.875Z,7.05
2023-04-01T22:42:59.028Z,7.72
2023-04-01T22:45:44.376Z,8.30
2023-04-01T22:48:22.247Z,9.02
2023-04-01T22:50:51.694Z,8.63
2023-04-01T22:53:30.823Z,7.63
2023-04-01T22:56:01.101Z,8.35
2023-04-01T22:58:34.204Z,8.15
2023-04-01T23:01:04.674Z,7.50
2023-04-01T23:03:32.608Z,7.07
2023-04-01T23:06:01.120Z,8.25
2023-04-01T23:09:00.708Z,8.70
2023-04-01T23:11:36.431Z,7.07
2023-04-01T23:14:27.758Z,8.50
2023-04-01T23:17:08.697Z,8.60
2023-04-01T23:19:44.678Z,9.23
2023-04-01T23:22:21.016Z,8.85
2023-04-01T23:27:52.334Z,7.95
2023-04-01T23:30:40.765Z,8.68
2023-04-01T23:33:30.996Z,9.18
2023-04-01T23:36:08.495Z,9.45
2023-04-01T23:38:36.982Z,9.25
2023-04-01T23:41:04.265Z,9.60
2023-04-01T23:43:41.905Z,9.23
2023-04-01T23:46:08.647Z,9.63
2023-04-01T23:48:39.826Z,9.20
2023-04-01T23:51:15.762Z,8.38
2023-04-01T23:53:45.706Z,8.20
2023-04-01T23:56:12.126Z,8.93
2023-04-01T23:58:38.433Z,10.30
